Time;durP1;ratioP1;P1;durP2;ratioP2;P2;SDS_P1;SDS_P2;PMS_P1;PMS_P2;Temp;Humidity;BMP_temperature;BMP_pressure;BME280_temperature;BME280_humidity;BME280_pressure;Samples;Min_cycle;Max_cycle;Signal;HPM_P1;HPM_P2
2024/04/11 00:01:57;;;;;;;3.60;2.20;;;;;;;16.63;42.40;94704.00;5526614;25;20727;-60
2024/04/11 00:04:23;;;;;;;4.17;2.40;;;;;;;16.40;43.27;94714.28;5526503;25;20220;-58
2024/04/11 00:06:48;;;;;;;3.27;1.93;;;;;;;15.92;43.05;94717.97;5526648;25;20300;-58
2024/04/11 00:09:14;;;;;;;4.60;2.33;;;;;;;15.31;44.45;94709.06;5526622;25;20226;-59
2024/04/11 00:11:39;;;;;;;3.90;2.17;;;;;;;15.59;44.01;94719.03;5526424;25;20320;-59
2024/04/11 00:14:05;;;;;;;4.30;2.20;;;;;;;15.69;43.95;94712.25;5526057;25;20743;-62
2024/04/11 00:16:30;;;;;;;4.53;2.17;;;;;;;15.62;44.09;94701.63;5526395;25;20265;-59
2024/04/11 00:18:56;;;;;;;3.63;2.10;;;;;;;15.44;44.58;94716.66;5526190;25;20214;-59
2024/04/11 00:21:21;;;;;;;3.43;1.70;;;;;;;15.30;44.89;94712.06;5526549;25;20217;-61
2024/04/11 00:23:47;;;;;;;4.33;2.30;;;;;;;15.13;44.93;94718.78;5526146;25;20251;-61
2024/04/11 00:26:13;;;;;;;3.80;2.30;;;;;;;15.60;44.12;94703.88;5524445;25;20245;-60
2024/04/11 00:28:38;;;;;;;2.93;2.03;;;;;;;15.72;44.11;94700.91;5525725;25;20950;-60
2024/04/11 00:31:04;;;;;;;3.70;1.80;;;;;;;15.78;43.54;94690.69;5526240;25;20221;-59
2024/04/11 00:33:29;;;;;;;4.40;2.20;;;;;;;15.76;44.09;94692.94;5526006;25;20217;-59
2024/04/11 00:35:55;;;;;;;3.00;2.07;;;;;;;15.91;43.51;94705.84;5525931;25;20232;-59
2024/04/11 00:38:21;;;;;;;6.93;2.00;;;;;;;15.88;44.13;94698.66;5526202;25;20270;-59
2024/04/11 00:40:57;;;;;;;4.27;2.20;;;;;;;15.89;43.94;94702.81;5522292;26;21124;-58
2024/04/11 00:43:23;;;;;;;4.87;2.13;;;;;;;15.88;44.33;94703.94;5525910;25;20438;-60
2024/04/11 00:45:48;;;;;;;2.40;2.00;;;;;;;16.00;43.10;94710.81;5525749;25;20941;-62
2024/04/11 00:48:15;;;;;;;3.47;2.30;;;;;;;16.02;43.82;94705.91;5525957;26;20422;-59
2024/04/11 00:50:42;;;;;;;6.07;2.63;;;;;;;16.05;43.49;94707.03;5525706;25;20292;-60
2024/04/11 00:53:08;;;;;;;3.60;2.50;;;;;;;16.03;44.42;94709.31;5523973;25;20441;-60
2024/04/11 00:55:35;;;;;;;3.77;2.50;;;;;;;16.01;43.55;94711.56;5526120;25;20442;-60
2024/04/11 00:58:01;;;;;;;3.63;2.40;;;;;;;16.04;43.42;94708.16;5524020;25;20439;-60
2024/04/11 01:00:27;;;;;;;6.87;2.40;;;;;;;15.93;43.65;94700.94;5525633;25;20435;-62
2024/04/11 01:02:53;;;;;;;5.20;2.80;;;;;;;15.80;43.67;94704.31;5523662;25;20435;-59
2024/04/11 01:05:19;;;;;;;3.73;2.23;;;;;;;15.94;43.65;94714.94;5523654;26;20222;-59
2024/04/11 01:07:55;;;;;;;5.73;2.70;;;;;;;15.88;44.08;94719.88;5525630;25;20321;-59
2024/04/11 01:10:22;;;;;;;5.00;2.30;;;;;;;15.80;44.12;94718.34;5525203;25;20513;-61
2024/04/11 01:12:48;;;;;;;4.73;2.10;;;;;;;15.78;43.99;94704.69;5525541;25;20438;-61
2024/04/11 01:15:14;;;;;;;2.90;2.30;;;;;;;15.84;44.01;94721.75;5525600;25;20498;-60
2024/04/11 01:17:40;;;;;;;3.37;1.97;;;;;;;15.85;43.91;94719.88;5525495;25;20808;-60
2024/04/11 01:20:06;;;;;;;6.00;2.50;;;;;;;15.86;44.52;94722.16;5525351;25;20211;-60
2024/04/11 01:22:39;;;;;;;3.93;2.27;;;;;;;15.80;44.71;94739.56;5525370;25;20445;-60
2024/04/11 01:25:04;;;;;;;5.33;2.00;;;;;;;15.82;43.79;94742.59;5524973;25;20214;-59
2024/04/11 01:27:29;;;;;;;6.13;2.23;;;;;;;15.80;44.21;94728.94;5525386;25;20856;-59
2024/04/11 01:29:55;;;;;;;6.20;2.57;;;;;;;15.85;43.92;94736.53;5524969;25;20217;-59
2024/04/11 01:32:21;;;;;;;4.23;2.03;;;;;;;15.78;44.40;94715.31;5525135;25;20209;-59
2024/04/11 01:34:46;;;;;;;4.53;2.20;;;;;;;15.79;44.33;94738.03;5523066;26;20826;-58
2024/04/11 01:37:12;;;;;;;5.13;2.40;;;;;;;15.69;44.74;94722.88;5525147;25;20433;-60
2024/04/11 01:39:37;;;;;;;3.93;2.20;;;;;;;15.76;44.43;94738.78;5524770;25;20280;-60
2024/04/11 01:42:04;;;;;;;3.47;2.23;;;;;;;15.75;44.67;94745.22;5523269;25;20227;-59
2024/04/11 01:44:30;;;;;;;4.93;2.00;;;;;;;15.72;44.88;94722.13;5524769;25;20248;-60
2024/04/11 01:46:57;;;;;;;3.60;2.37;;;;;;;15.74;45.08;94738.41;5524912;25;20967;-60
2024/04/11 01:49:23;;;;;;;3.60;2.50;;;;;;;15.73;44.55;94733.47;5524878;25;20492;-60
2024/04/11 01:51:48;;;;;;;6.20;2.43;;;;;;;15.66;44.88;94722.84;5522071;25;20439;-60
2024/04/11 01:54:14;;;;;;;3.17;2.37;;;;;;;15.62;44.99;94731.56;5524477;25;20223;-63
2024/04/11 01:56:39;;;;;;;3.43;2.37;;;;;;;15.61;45.87;94737.25;5524397;25;20246;-60
2024/04/11 01:59:05;;;;;;;12.40;3.10;;;;;;;15.50;45.92;94731.09;5524869;25;20311;-59
2024/04/11 02:01:40;;;;;;;5.37;2.70;;;;;;;15.47;45.52;94731.84;5524745;25;20669;-60
2024/04/11 02:04:06;;;;;;;5.50;2.70;;;;;;;15.41;45.97;94757.19;5524628;25;20780;-59
2024/04/11 02:06:34;;;;;;;4.07;2.90;;;;;;;15.25;46.44;94773.41;5524542;25;20426;-59
2024/04/11 02:09:00;;;;;;;3.57;2.63;;;;;;;15.21;46.40;94738.13;5524095;25;20256;-60
2024/04/11 02:11:26;;;;;;;4.47;2.73;;;;;;;15.10;46.88;94745.28;5524444;25;20488;-59
2024/04/11 02:13:51;;;;;;;5.30;2.50;;;;;;;15.05;47.02;94759.63;5524419;25;20931;-60
2024/04/11 02:16:18;;;;;;;4.00;2.50;;;;;;;15.00;47.13;94736.13;5524330;25;20697;-60
2024/04/11 02:18:45;;;;;;;5.47;2.70;;;;;;;14.90;47.66;94737.59;5524423;25;20217;-59
2024/04/11 02:21:11;;;;;;;5.60;2.40;;;;;;;14.95;47.66;94744.44;5524481;25;20435;-59
2024/04/11 02:23:36;;;;;;;8.70;2.80;;;;;;;14.92;48.02;94756.53;5523942;25;20935;-59
2024/04/11 02:26:02;;;;;;;4.77;2.87;;;;;;;14.93;48.26;94744.03;5524322;25;20219;-59
2024/04/11 02:28:29;;;;;;;6.67;2.90;;;;;;;14.96;48.28;94767.16;5522102;26;20221;-59
2024/04/11 02:30:54;;;;;;;5.57;2.53;;;;;;;14.95;48.05;94749.72;5524120;25;20438;-61
2024/04/11 02:33:21;;;;;;;5.70;2.60;;;;;;;14.97;48.20;94755.41;5524342;25;20438;-58
2024/04/11 02:35:47;;;;;;;4.50;2.83;;;;;;;14.90;48.39;94747.44;5524563;25;20214;-61
2024/04/11 02:38:13;;;;;;;5.63;2.90;;;;;;;14.96;48.35;94781.16;5523800;25;20478;-60
2024/04/11 02:40:38;;;;;;;6.13;2.77;;;;;;;14.89;48.32;94753.84;5523695;25;20276;-58
2024/04/11 02:43:04;;;;;;;4.87;3.03;;;;;;;14.95;48.71;94766.38;5523763;25;20283;-59
2024/04/11 02:45:29;;;;;;;3.60;2.73;;;;;;;14.97;48.37;94763.38;5524046;25;20633;-59
2024/04/11 02:47:55;;;;;;;5.93;3.30;;;;;;;15.01;48.28;94769.44;5523836;25;20215;-59
2024/04/11 02:50:23;;;;;;;4.00;2.73;;;;;;;14.93;48.49;94767.88;5521753;26;20221;-60
2024/04/11 02:52:49;;;;;;;7.07;3.30;;;;;;;14.94;48.58;94769.41;5523336;25;20322;-60
2024/04/11 02:55:15;;;;;;;4.20;3.00;;;;;;;14.81;48.70;94757.56;5522254;25;20454;-61
2024/04/11 02:57:42;;;;;;;5.77;2.83;;;;;;;14.76;48.29;94773.78;5523270;25;20226;-59
2024/04/11 03:00:09;;;;;;;3.80;2.90;;;;;;;14.67;49.26;94761.63;5523557;25;20214;-59
2024/04/11 03:02:35;;;;;;;5.17;3.30;;;;;;;14.58;48.57;94758.53;5523476;25;20520;-60
2024/04/11 03:05:01;;;;;;;4.87;3.30;;;;;;;14.66;49.01;94773.34;5526165;25;20446;-60
2024/04/11 03:07:27;;;;;;;4.20;2.87;;;;;;;14.66;48.73;94762.00;5526925;25;20218;-58
2024/04/11 03:09:56;;;;;;;5.03;3.13;;;;;;;14.67;48.44;94782.81;5527529;25;20320;-59
2024/04/11 03:12:21;;;;;;;3.67;2.33;;;;;;;14.66;48.52;94770.72;5526956;25;20438;-58
2024/04/11 03:14:47;;;;;;;5.60;3.00;;;;;;;14.70;48.75;94776.03;5527097;25;20924;-60
2024/04/11 03:17:13;;;;;;;6.07;3.27;;;;;;;14.62;49.23;94779.75;5527040;26;20261;-58
2024/04/11 03:19:39;;;;;;;4.00;2.70;;;;;;;14.64;49.17;94780.91;5527027;25;20935;-60
2024/04/11 03:22:05;;;;;;;5.67;2.97;;;;;;;14.66;48.86;94788.47;5526696;25;20295;-59
2024/04/11 03:24:31;;;;;;;4.83;2.80;;;;;;;14.70;49.19;94802.50;5526799;25;20522;-59
2024/04/11 03:26:57;;;;;;;4.97;3.17;;;;;;;14.63;49.47;94797.91;5526871;25;20434;-60
2024/04/11 03:29:22;;;;;;;5.40;3.03;;;;;;;14.58;49.19;94778.97;5527174;25;20576;-61
2024/04/11 03:31:48;;;;;;;6.00;3.13;;;;;;;14.65;49.44;94800.97;5526994;25;20690;-60
2024/04/11 03:34:14;;;;;;;5.77;3.27;;;;;;;14.65;49.52;94800.97;5527055;25;20434;-60
2024/04/11 03:36:40;;;;;;;7.00;3.10;;;;;;;14.60;49.66;94793.34;5526532;25;20281;-61
2024/04/11 03:39:11;;;;;;;5.40;3.00;;;;;;;14.65;50.09;94822.16;5526670;25;20221;-60
2024/04/11 03:41:40;;;;;;;5.53;3.20;;;;;;;14.38;50.46;94833.94;5526549;25;20434;-60
2024/04/11 03:44:06;;;;;;;6.37;3.20;;;;;;;14.51;50.42;94818.63;5526820;25;20446;-60
2024/04/11 03:46:31;;;;;;;7.00;3.70;;;;;;;14.51;50.63;94822.03;5526811;25;20424;-59
2024/04/11 03:48:56;;;;;;;6.30;3.27;;;;;;;14.45;50.53;94834.03;5526991;25;20690;-60
2024/04/11 03:51:32;;;;;;;6.17;3.50;;;;;;;14.41;51.21;94843.81;5526442;25;20536;-60
2024/04/11 03:54:00;;;;;;;6.80;3.67;;;;;;;14.37;50.90;94827.13;5524895;26;20263;-61
2024/04/11 03:56:30;;;;;;;11.23;4.10;;;;;;;14.35;51.11;94846.03;5526423;25;20562;-60
2024/04/11 03:58:57;;;;;;;8.37;3.80;;;;;;;14.31;51.14;94833.88;5526673;25;20812;-60
2024/04/11 04:01:23;;;;;;;11.67;4.57;;;;;;;14.24;51.69;94834.56;5526497;25;20431;-60
2024/04/11 04:03:51;;;;;;;16.90;5.13;;;;;;;14.18;51.62;94819.38;5526342;25;20438;-60
2024/04/11 04:06:17;;;;;;;17.30;4.57;;;;;;;14.26;51.47;94834.22;5526203;25;20426;-60
2024/04/11 04:08:44;;;;;;;12.17;4.17;;;;;;;14.25;51.87;94836.09;5526179;25;20548;-58
2024/04/11 04:11:10;;;;;;;14.90;5.57;;;;;;;14.19;51.55;94815.63;5526348;25;20263;-61
2024/04/11 04:13:37;;;;;;;11.70;4.47;;;;;;;14.22;51.99;94846.66;5526655;25;20447;-60
2024/04/11 04:16:14;;;;;;;7.80;4.33;;;;;;;14.17;51.65;94839.03;5523984;25;20454;-61
2024/04/11 04:18:47;;;;;;;11.17;4.57;;;;;;;14.13;51.40;94838.22;5525824;25;21014;-60
2024/04/11 04:21:16;;;;;;;19.23;4.53;;;;;;;14.12;51.30;94834.81;5526258;25;20487;-61
2024/04/11 04:23:42;;;;;;;10.00;4.60;;;;;;;14.13;51.80;94832.94;5525995;25;20439;-59
2024/04/11 04:26:08;;;;;;;11.20;5.00;;;;;;;14.11;51.34;94845.75;5526280;25;20643;-58
2024/04/11 04:28:39;;;;;;;11.07;4.40;;;;;;;14.14;51.65;94853.75;5525919;25;20954;-60
2024/04/11 04:31:21;;;;;;;12.47;4.33;;;;;;;14.24;51.33;94834.56;5525750;25;20494;-60
2024/04/11 04:33:54;;;;;;;9.33;4.73;;;;;;;14.26;50.72;94827.03;5525979;25;20797;-60
2024/04/11 04:36:25;;;;;;;13.23;5.27;;;;;;;14.39;51.45;94840.75;5525996;25;20450;-60
2024/04/11 04:38:52;;;;;;;15.77;4.70;;;;;;;14.42;50.74;94845.31;5526010;25;20450;-60
2024/04/11 04:41:18;;;;;;;16.10;6.03;;;;;;;14.45;50.56;94847.28;5525982;25;20446;-59
2024/04/11 04:43:45;;;;;;;10.33;5.50;;;;;;;14.51;50.69;94848.50;5525255;25;20485;-60
2024/04/11 04:46:15;;;;;;;18.07;6.90;;;;;;;14.50;50.54;94856.81;5526730;25;20733;-59
2024/04/11 04:48:41;;;;;;;12.03;4.10;;;;;;;14.54;49.84;94834.53;5527490;25;20473;-60
2024/04/11 04:51:06;;;;;;;14.03;4.90;;;;;;;14.68;50.55;94847.13;5526169;25;20888;-60
2024/04/11 04:53:32;;;;;;;7.83;4.20;;;;;;;14.67;49.64;94846.38;5526101;25;20215;-60
2024/04/11 04:55:57;;;;;;;6.07;4.67;;;;;;;14.70;49.69;94843.00;5525549;26;20249;-60
2024/04/11 04:58:23;;;;;;;10.33;4.70;;;;;;;14.85;49.20;94845.75;5523212;25;20218;-61
2024/04/11 05:00:48;;;;;;;13.80;4.00;;;;;;;14.98;49.23;94844.38;5525387;25;20260;-60
2024/04/11 05:03:14;;;;;;;12.77;4.63;;;;;;;15.01;49.86;94855.00;5525505;25;20294;-60
2024/04/11 05:05:43;;;;;;;7.13;3.60;;;;;;;15.07;49.22;94866.00;5525141;25;20260;-60
2024/04/11 05:08:11;;;;;;;20.80;4.37;;;;;;;15.07;49.53;94860.69;5525506;25;20434;-59
2024/04/11 05:10:43;;;;;;;15.50;4.80;;;;;;;15.18;49.05;94866.84;5525483;25;20472;-60
2024/04/11 05:13:09;;;;;;;10.50;5.47;;;;;;;15.20;49.75;94859.28;5525005;25;20437;-59
2024/04/11 05:15:41;;;;;;;10.87;5.57;;;;;;;15.24;49.33;94860.09;5524605;25;21005;-59
2024/04/11 05:18:06;;;;;;;16.20;4.37;;;;;;;15.37;48.55;94870.41;5524895;25;20966;-59
2024/04/11 05:20:33;;;;;;;11.43;4.73;;;;;;;15.43;48.99;94879.50;5525074;25;20442;-59
2024/04/11 05:22:59;;;;;;;15.47;4.77;;;;;;;15.48;48.74;94868.56;5524941;25;20677;-60
2024/04/11 05:25:24;;;;;;;11.07;4.50;;;;;;;15.49;48.84;94872.72;5524790;25;20474;-61
2024/04/11 05:27:50;;;;;;;11.77;4.50;;;;;;;15.60;48.52;94892.91;5523838;25;20544;-59
2024/04/11 05:30:15;;;;;;;10.43;4.33;;;;;;;15.64;48.00;94885.00;5524971;25;20222;-59
2024/04/11 05:32:43;;;;;;;10.50;4.53;;;;;;;15.71;47.80;94894.88;5522871;25;20228;-60
2024/04/11 05:35:09;;;;;;;17.03;4.43;;;;;;;15.69;48.23;94882.00;5524728;25;20220;-60
2024/04/11 05:37:40;;;;;;;11.23;4.10;;;;;;;15.79;47.17;94886.59;5524315;25;20438;-60
2024/04/11 05:40:07;;;;;;;14.50;4.90;;;;;;;15.84;47.29;94880.16;5524327;25;20493;-61
2024/04/11 05:42:35;;;;;;;8.90;4.90;;;;;;;15.89;47.47;94885.88;5524068;25;20957;-61
2024/04/11 05:45:03;;;;;;;14.70;4.87;;;;;;;15.91;48.04;94899.53;5524362;25;20430;-59
2024/04/11 05:47:30;;;;;;;10.03;4.23;;;;;;;15.95;47.68;94895.00;5524534;25;20912;-60
2024/04/11 05:49:56;;;;;;;12.50;4.43;;;;;;;16.02;47.02;94888.22;5524682;25;20760;-59
2024/04/11 05:52:30;;;;;;;11.43;4.70;;;;;;;16.15;47.10;94897.38;5524648;25;20994;-61
2024/04/11 05:54:56;;;;;;;9.40;4.40;;;;;;;16.30;46.87;94890.97;5522810;25;20580;-60
2024/04/11 05:57:22;;;;;;;14.30;4.43;;;;;;;16.37;46.63;94909.63;5522188;25;20466;-60
2024/04/11 05:59:47;;;;;;;10.67;4.67;;;;;;;16.45;47.22;94895.22;5524600;25;20491;-60
2024/04/11 06:02:13;;;;;;;18.87;4.80;;;;;;;16.53;46.88;94917.25;5524881;25;20253;-60
2024/04/11 06:04:42;;;;;;;8.90;4.50;;;;;;;16.61;46.50;94912.72;5524344;25;20215;-58
2024/04/11 06:07:10;;;;;;;11.40;4.90;;;;;;;16.70;46.87;94910.47;5524566;25;20495;-61
2024/04/11 06:09:36;;;;;;;11.67;4.20;;;;;;;16.81;45.84;94916.59;5524413;25;20435;-60
2024/04/11 06:12:01;;;;;;;7.93;4.37;;;;;;;16.68;46.77;94918.81;5523874;25;20486;-61
2024/04/11 06:14:28;;;;;;;10.17;4.37;;;;;;;16.87;46.23;94920.41;5523944;25;20217;-61
2024/04/11 06:16:54;;;;;;;14.20;4.00;;;;;;;17.01;46.48;94923.06;5523811;25;20327;-60
2024/04/11 06:19:19;;;;;;;12.50;4.67;;;;;;;17.07;45.52;94924.22;5524023;25;20445;-60
2024/04/11 06:21:47;;;;;;;9.40;4.40;;;;;;;17.18;45.85;94940.94;5523801;25;20217;-62
2024/04/11 06:24:14;;;;;;;13.43;4.10;;;;;;;17.19;45.32;94928.41;5523539;25;20292;-59
2024/04/11 06:26:40;;;;;;;8.90;4.30;;;;;;;17.37;44.61;94936.38;5520950;25;20447;-60
2024/04/11 06:29:07;;;;;;;11.27;4.70;;;;;;;17.35;45.28;94934.13;5522642;25;20495;-60
2024/04/11 06:31:34;;;;;;;9.97;4.30;;;;;;;17.39;44.90;94923.47;5522669;25;20364;-61
2024/04/11 06:33:59;;;;;;;8.83;4.03;;;;;;;17.49;44.55;94959.97;5522576;25;20494;-60
2024/04/11 06:36:25;;;;;;;8.40;2.87;;;;;;;17.51;43.82;94928.44;5522454;25;20436;-60
2024/04/11 06:38:51;;;;;;;4.30;2.57;;;;;;;17.52;44.40;94927.28;5525250;25;20690;-60
2024/04/11 06:41:22;;;;;;;4.57;2.20;;;;;;;17.61;43.05;94932.97;5526262;25;20317;-60
2024/04/11 06:43:51;;;;;;;9.30;2.30;;;;;;;17.76;43.08;94939.81;5524503;25;20791;-60
2024/04/11 06:46:18;;;;;;;3.17;2.30;;;;;;;17.84;42.62;94958.44;5524468;26;20490;-62
2024/04/11 06:48:45;;;;;;;60.80;37.03;;;;;;;17.93;44.37;94950.84;5526122;25;20514;-61
2024/04/11 06:51:14;;;;;;;23.67;16.30;;;;;;;18.15;44.23;94952.28;5525814;25;20550;-61
2024/04/11 06:53:43;;;;;;;41.37;29.13;;;;;;;18.33;44.34;94955.69;5524056;25;20555;-60
2024/04/11 06:56:11;;;;;;;7.50;4.80;;;;;;;18.46;43.19;94960.56;5523482;25;20465;-60
2024/04/11 06:58:37;;;;;;;3.67;2.57;;;;;;;18.39;43.58;94980.78;5525926;25;20494;-60
2024/04/11 07:01:04;;;;;;;5.53;3.33;;;;;;;18.41;42.27;94965.16;5526261;25;20433;-60
2024/04/11 07:03:30;;;;;;;6.63;2.87;;;;;;;18.42;43.02;94958.69;5525867;25;20543;-60
2024/04/11 07:06:09;;;;;;;5.30;2.83;;;;;;;18.44;43.65;94958.31;5525571;25;20945;-60
2024/04/11 07:08:37;;;;;;;4.73;2.67;;;;;;;18.59;42.43;94964.34;5526104;25;20266;-59
2024/04/11 07:11:20;;;;;;;6.23;2.87;;;;;;;18.38;42.04;94965.94;5526037;25;20957;-63
2024/04/11 07:13:55;;;;;;;6.03;3.00;;;;;;;18.48;42.77;94958.28;5526028;25;21066;-63
2024/04/11 07:16:26;;;;;;;6.73;2.80;;;;;;;18.55;42.90;94967.00;5525510;25;20428;-63
2024/04/11 07:18:55;;;;;;;7.67;3.37;;;;;;;18.55;41.81;94969.66;5525550;25;20445;-63
2024/04/11 07:21:28;;;;;;;6.80;3.40;;;;;;;18.68;41.88;94978.03;5525769;25;20498;-63
2024/04/11 07:23:57;;;;;;;6.07;3.23;;;;;;;18.79;41.81;94973.41;5525653;25;20482;-62
2024/04/11 07:26:24;;;;;;;11.43;4.10;;;;;;;18.89;42.88;94980.59;5525906;25;20498;-62
2024/04/11 07:28:51;;;;;;;6.63;3.53;;;;;;;18.94;41.43;94980.19;5523136;26;20457;-62
2024/04/11 07:31:17;;;;;;;4.40;3.17;;;;;;;19.07;40.83;94977.09;5525263;25;20450;-60
2024/04/11 07:33:43;;;;;;;14.47;3.90;;;;;;;19.17;40.15;94981.59;5525043;25;20999;-60
2024/04/11 07:36:10;;;;;;;8.00;3.90;;;;;;;19.08;40.71;94986.59;5525363;25;20441;-60
2024/04/11 07:38:37;;;;;;;9.23;3.37;;;;;;;19.28;40.73;94998.28;5525119;25;20519;-60
2024/04/11 07:41:16;;;;;;;10.27;3.80;;;;;;;19.28;41.58;94987.59;5524960;25;20478;-60
2024/04/11 07:43:52;;;;;;;9.90;3.67;;;;;;;19.47;40.75;94999.69;5523069;26;20452;-60
2024/04/11 07:46:28;;;;;;;4.90;3.53;;;;;;;19.51;40.18;94979.84;5525164;25;20587;-61
2024/04/11 07:48:55;;;;;;;5.07;3.43;;;;;;;19.57;39.86;94988.22;5525064;25;20602;-61
2024/04/11 07:51:21;;;;;;;9.30;3.17;;;;;;;19.54;39.44;94984.41;5524503;25;20512;-60
2024/04/11 07:53:48;;;;;;;8.10;2.83;;;;;;;19.68;39.79;94994.22;5524825;25;20441;-61
2024/04/11 07:56:21;;;;;;;10.10;3.27;;;;;;;19.66;40.80;94986.59;5524751;25;20503;-60
2024/04/11 07:58:53;;;;;;;6.27;3.33;;;;;;;19.75;39.12;94988.84;5524630;25;20486;-60
2024/04/11 08:01:30;;;;;;;7.73;3.20;;;;;;;19.70;39.42;94991.16;5525034;25;20523;-61
2024/04/11 08:04:02;;;;;;;15.87;3.27;;;;;;;19.72;38.61;94994.97;5524870;25;20483;-60
2024/04/11 08:06:32;;;;;;;12.23;3.27;;;;;;;19.81;39.75;94986.50;5525002;25;20426;-61
2024/04/11 08:08:59;;;;;;;6.87;2.80;;;;;;;19.85;38.66;94993.31;5525035;25;20828;-60
2024/04/11 08:11:30;;;;;;;7.27;3.17;;;;;;;19.84;38.46;94980.38;5514448;25;20462;-59
2024/04/11 08:13:57;;;;;;;9.50;2.80;;;;;;;19.95;38.40;94991.72;5484916;26;20444;-60
2024/04/11 08:16:23;;;;;;;8.17;5.17;;;;;;;19.88;38.22;94991.78;5486121;26;20962;-61
2024/04/11 08:18:49;;;;;;;15.87;8.70;;;;;;;19.94;37.24;94990.19;5488900;26;20433;-62
2024/04/11 08:21:16;;;;;;;5.00;3.23;;;;;;;20.07;36.57;95004.59;5485969;26;20496;-62
2024/04/11 08:23:45;;;;;;;7.57;2.97;;;;;;;20.12;36.68;94996.16;5515222;25;20257;-62
2024/04/11 08:26:15;;;;;;;8.40;2.50;;;;;;;19.88;36.64;94999.78;5487968;26;21014;-60
2024/04/11 08:28:43;;;;;;;4.63;2.50;;;;;;;20.10;36.66;95003.03;5487814;26;20443;-61
2024/04/11 08:31:09;;;;;;;6.50;2.40;;;;;;;19.95;35.27;94992.47;5516320;26;20834;-62
2024/04/11 08:33:36;;;;;;;5.07;2.60;;;;;;;20.25;35.91;95029.22;5485252;26;20562;-61
2024/04/11 08:36:08;;;;;;;5.30;2.60;;;;;;;20.27;35.31;94992.16;5487280;26;21257;-60
2024/04/11 08:38:34;;;;;;;6.43;2.60;;;;;;;20.40;34.58;95000.44;5515045;25;20518;-59
2024/04/11 08:41:12;;;;;;;4.90;2.43;;;;;;;20.52;34.52;95005.31;5518067;25;20507;-60
2024/04/11 08:43:39;;;;;;;6.53;2.33;;;;;;;20.49;34.86;94991.97;5524723;25;20449;-61
2024/04/11 08:46:09;;;;;;;5.00;2.40;;;;;;;20.28;34.36;94990.25;5524602;25;20428;-66
2024/04/11 08:48:38;;;;;;;4.33;2.33;;;;;;;20.22;34.65;95013.22;5524461;25;20547;-62
2024/04/11 08:51:15;;;;;;;16.63;12.77;;;;;;;20.29;34.07;95000.53;5522344;25;20541;-61
2024/04/11 08:53:45;;;;;;;7.50;5.20;;;;;;;20.41;35.62;94998.53;5524476;25;20872;-60
2024/04/11 08:56:13;;;;;;;13.40;9.50;;;;;;;20.60;34.68;94997.97;5522343;26;20559;-61
2024/04/11 08:58:41;;;;;;;11.97;3.70;;;;;;;20.74;33.27;94991.69;5524098;25;20982;-62
2024/04/11 09:01:07;;;;;;;10.10;4.00;;;;;;;20.83;32.98;95005.34;5523248;25;20442;-63
2024/04/11 09:03:35;;;;;;;11.67;2.90;;;;;;;20.94;32.54;94989.91;5523619;26;20899;-62
2024/04/11 09:06:01;;;;;;;7.00;3.30;;;;;;;20.86;32.38;94997.28;5524128;25;20600;-62
2024/04/11 09:08:26;;;;;;;4.60;2.77;;;;;;;21.07;33.13;94984.75;5524801;25;20438;-62
2024/04/11 09:10:56;;;;;;;10.57;4.30;;;;;;;21.13;32.40;94991.94;5521770;25;20219;-61
2024/04/11 09:13:25;;;;;;;8.23;3.17;;;;;;;21.07;32.77;94992.78;5523939;25;20260;-62
2024/04/11 09:16:09;;;;;;;9.80;3.70;;;;;;;21.35;32.63;94986.31;5523934;25;20438;-62
2024/04/11 09:18:34;;;;;;;5.87;3.50;;;;;;;21.44;32.58;94981.97;5524562;25;20506;-63
2024/04/11 09:20:59;;;;;;;2.70;2.20;;;;;;;21.54;30.87;94973.00;5524138;25;20450;-61
2024/04/11 09:23:25;;;;;;;4.27;2.63;;;;;;;21.41;29.92;94972.06;5521947;25;20311;-62
2024/04/11 09:25:50;;;;;;;4.70;2.50;;;;;;;21.01;28.89;94983.69;5501803;25;20230;-62
2024/04/11 09:28:16;;;;;;;3.93;2.17;;;;;;;20.85;29.31;94989.66;5483578;26;20776;-62
2024/04/11 09:30:45;;;;;;;6.80;2.90;;;;;;;20.82;29.65;94988.53;5484260;26;20310;-62
2024/04/11 09:33:12;;;;;;;12.20;10.40;;;;;;;21.22;30.99;94991.44;5486576;26;20306;-62
2024/04/11 09:35:46;;;;;;;5.20;3.30;;;;;;;21.49;29.54;94994.13;5484115;26;20483;-62
2024/04/11 09:38:13;;;;;;;3.93;2.30;;;;;;;21.56;27.68;94974.53;5485652;26;20524;-61
2024/04/11 09:40:50;;;;;;;6.53;2.80;;;;;;;21.82;28.50;94989.78;5511507;26;20442;-61
2024/04/11 09:43:17;;;;;;;5.70;2.30;;;;;;;21.91;26.24;94982.00;5523568;25;20564;-61
2024/04/11 09:46:07;;;;;;;4.50;2.40;;;;;;;21.94;26.81;94989.22;5521311;25;20448;-61
2024/04/11 09:48:38;;;;;;;6.30;2.50;;;;;;;22.12;26.40;94984.34;5523643;25;20886;-62
2024/04/11 09:51:09;;;;;;;5.30;2.50;;;;;;;22.22;26.41;94989.91;5523340;25;20486;-62
2024/04/11 09:53:36;;;;;;;9.73;3.20;;;;;;;22.36;26.53;94984.31;5522401;25;20742;-63
2024/04/11 09:56:05;;;;;;;6.63;3.10;;;;;;;22.55;27.22;94977.44;5523039;25;20437;-61
2024/04/11 09:58:38;;;;;;;12.23;6.47;;;;;;;22.69;26.46;94977.16;5523371;25;20524;-62
2024/04/11 10:01:53;;;;;;;5.17;3.63;;;;;;;22.80;25.88;94985.75;5524518;25;20483;-60
2024/04/11 10:04:24;;;;;;;6.40;2.60;;;;;;;22.96;25.53;94980.44;5520017;25;20795;-62
2024/04/11 10:06:53;;;;;;;6.83;3.00;;;;;;;23.04;26.04;94975.69;5523788;25;20796;-63
2024/04/11 10:09:18;;;;;;;3.50;2.10;;;;;;;23.17;24.82;94987.31;5523476;25;20836;-61
2024/04/11 10:11:46;;;;;;;3.80;2.60;;;;;;;23.28;25.29;94979.78;5523307;25;20485;-62
2024/04/11 10:14:20;;;;;;;4.53;2.23;;;;;;;23.06;24.28;94976.06;5525455;25;20260;-61
2024/04/11 10:16:51;;;;;;;3.90;1.80;;;;;;;23.33;25.10;94998.06;5526886;25;20434;-63
2024/04/11 10:19:31;;;;;;;10.00;2.40;;;;;;;23.31;23.03;94976.25;5527095;25;20437;-63
2024/04/11 10:22:04;;;;;;;6.43;2.23;;;;;;;23.39;24.19;94980.28;5527031;25;20942;-62
2024/04/11 10:24:36;;;;;;;5.73;2.70;;;;;;;23.43;25.14;94985.59;5524670;25;21011;-62
2024/04/11 10:27:10;;;;;;;4.17;2.17;;;;;;;23.59;24.13;94992.94;5527089;25;20418;-63
2024/04/11 10:29:48;;;;;;;5.93;1.93;;;;;;;23.43;24.26;94958.75;5527155;25;20457;-62
2024/04/11 10:32:22;;;;;;;6.03;3.47;;;;;;;23.78;23.43;94994.75;5526868;25;20951;-63
2024/04/11 10:34:57;;;;;;;4.40;2.40;;;;;;;23.77;23.82;94969.06;5526824;25;20428;-62
2024/04/11 10:37:29;;;;;;;7.70;2.10;;;;;;;24.05;23.00;94982.97;5526594;25;20549;-63
2024/04/11 10:39:57;;;;;;;6.10;2.53;;;;;;;24.19;23.63;94974.56;5526177;25;20452;-63
2024/04/11 10:42:39;;;;;;;3.63;1.90;;;;;;;24.28;23.29;94977.44;5526075;25;20542;-63
2024/04/11 10:45:17;;;;;;;3.10;2.10;;;;;;;24.31;23.21;94965.81;5524474;26;20486;-64
2024/04/11 10:47:44;;;;;;;2.63;1.77;;;;;;;24.49;23.42;94973.41;5526419;25;20493;-63
2024/04/11 10:50:10;;;;;;;4.83;2.03;;;;;;;24.59;22.79;94985.84;5526343;25;20561;-64
2024/04/11 10:52:37;;;;;;;3.63;1.70;;;;;;;24.72;21.81;94973.16;5526447;25;20497;-63
2024/04/11 10:55:22;;;;;;;3.07;1.50;;;;;;;24.69;22.57;94973.25;5526503;25;20998;-63
2024/04/11 10:58:08;;;;;;;4.27;1.97;;;;;;;24.37;23.19;94966.81;5525925;25;20450;-63
2024/04/11 11:01:07;;;;;;;2.67;1.87;;;;;;;24.02;23.05;94971.91;5526313;25;20442;-63
2024/04/11 11:03:42;;;;;;;5.40;2.23;;;;;;;24.02;23.02;94971.91;5526363;25;20504;-64
2024/04/11 11:06:15;;;;;;;4.00;1.87;;;;;;;24.03;22.90;94975.34;5525931;25;20483;-63
2024/04/11 11:08:44;;;;;;;3.40;1.70;;;;;;;24.13;22.25;94960.88;5526027;25;20434;-64
2024/04/11 11:11:14;;;;;;;9.93;2.40;;;;;;;24.35;23.34;94971.88;5525518;25;20485;-63
2024/04/11 11:13:43;;;;;;;7.40;1.80;;;;;;;24.58;24.88;94968.94;5525620;25;20524;-64
2024/04/11 11:16:18;;;;;;;5.17;1.63;;;;;;;24.33;24.29;94981.53;5525343;25;20433;-63
2024/04/11 11:18:44;;;;;;;3.97;1.97;;;;;;;24.33;24.82;94960.78;5525469;25;20490;-64
2024/04/11 11:21:16;;;;;;;6.10;2.03;;;;;;;24.47;24.63;94968.44;5525822;25;20433;-64
2024/04/11 11:23:45;;;;;;;3.77;1.60;;;;;;;24.77;23.62;94971.88;5523621;25;20225;-64
2024/04/11 11:26:20;;;;;;;1.97;1.53;;;;;;;25.10;24.60;94953.66;5524716;25;20443;-63
2024/04/11 11:28:45;;;;;;;2.50;1.73;;;;;;;25.43;22.99;94943.41;5525482;25;20909;-63
2024/04/11 11:31:20;;;;;;;3.67;1.47;;;;;;;25.75;23.34;94958.59;5525376;25;20446;-63
2024/04/11 11:33:49;;;;;;;8.83;1.90;;;;;;;25.73;23.60;94953.63;5523974;26;20308;-64
2024/04/11 11:36:18;;;;;;;4.90;2.60;;;;;;;25.90;23.67;94953.47;5525346;25;20572;-63
2024/04/11 11:38:48;;;;;;;3.20;1.50;;;;;;;26.22;23.39;94947.78;5525328;25;20498;-64